createdAt,value
2023-04-01T00:02:09.819Z,36.95
2023-04-01T00:07:15.345Z,36.89
2023-04-01T00:12:20.779Z,37.52
2023-04-01T00:17:26.162Z,36.69
2023-04-01T00:22:31.574Z,37.04
2023-04-01T00:27:37.086Z,36.19
2023-04-01T00:32:42.492Z,36.94
2023-04-01T00:37:48.769Z,36.26
2023-04-01T00:42:53.966Z,35.67
2023-04-01T00:48:02.234Z,35.92
2023-04-01T00:53:08.792Z,35.95
2023-04-01T00:58:20.762Z,35.93
2023-04-01T01:03:25.984Z,35.78
2023-04-01T01:08:44.405Z,35.20
2023-04-01T01:14:48.036Z,34.89
2023-04-01T01:20:15.698Z,35.53
2023-04-01T01:25:51.362Z,35.54
2023-04-01T01:31:17.919Z,34.80
2023-04-01T01:36:26.060Z,35.70
2023-04-01T01:41:35.065Z,35.30
2023-04-01T01:46:44.088Z,35.04
2023-04-01T01:51:50.402Z,35.51
2023-04-01T01:57:04.450Z,34.51
2023-04-01T02:02:11.292Z,34.44
2023-04-01T02:07:44.935Z,34.43
2023-04-01T02:12:53.753Z,34.50
2023-04-01T02:18:00.248Z,34.62
2023-04-01T02:23:06.183Z,34.31
2023-04-01T02:28:13.714Z,34.24
2023-04-01T02:33:21.871Z,34.05
2023-04-01T02:38:28.526Z,33.99
2023-04-01T02:43:33.666Z,34.14
2023-04-01T02:48:39.629Z,33.79
2023-04-01T02:53:46.975Z,33.80
2023-04-01T02:58:52.948Z,33.56
2023-04-01T03:03:58.408Z,33.38
2023-04-01T03:09:04.091Z,33.65
2023-04-01T03:14:09.752Z,33.39
2023-04-01T03:19:14.941Z,33.29
2023-04-01T03:24:20.232Z,33.29
2023-04-01T03:29:26.145Z,33.42
2023-04-01T03:34:33.147Z,33.02
2023-04-01T03:39:39.503Z,32.58
2023-04-01T03:44:44.922Z,32.84
2023-04-01T03:49:50.777Z,32.84
2023-04-01T03:54:56.043Z,32.81
2023-04-01T04:00:01.542Z,32.89
2023-04-01T04:05:07.161Z,32.53
2023-04-01T04:10:13.105Z,32.68
2023-04-01T04:15:19.151Z,32.95
2023-04-01T04:20:24.682Z,32.77
2023-04-01T04:25:30.050Z,32.93
2023-04-01T04:30:36.137Z,32.86
2023-04-01T04:35:42.753Z,33.02
2023-04-01T04:40:49.725Z,32.69
2023-04-01T04:45:55.319Z,32.28
2023-04-01T04:51:00.737Z,32.50
2023-04-01T04:56:06.267Z,32.23
2023-04-01T05:01:24.480Z,32.56
2023-04-01T05:06:31.741Z,32.46
2023-04-01T05:11:38.206Z,32.27
2023-04-01T05:16:43.634Z,32.25
2023-04-01T05:21:48.946Z,31.82
2023-04-01T05:26:55.241Z,31.65
2023-04-01T05:32:03.554Z,31.54
2023-04-01T05:37:10.957Z,30.60
2023-04-01T05:42:18.010Z,30.36
2023-04-01T05:47:23.264Z,29.96
2023-04-01T05:52:29.101Z,29.82
2023-04-01T05:57:34.901Z,30.55
2023-04-01T06:02:44.194Z,29.94
2023-04-01T06:07:49.474Z,29.83
2023-04-01T06:12:59.811Z,30.09
2023-04-01T06:18:46.061Z,30.37
2023-04-01T06:24:19.938Z,30.35
2023-04-01T06:29:32.740Z,30.05
2023-04-01T06:34:57.869Z,29.77
2023-04-01T06:40:13.722Z,30.25
2023-04-01T06:45:48.972Z,29.55
2023-04-01T06:51:35.122Z,29.71
2023-04-01T06:57:05.284Z,29.90
2023-04-01T07:02:13.596Z,29.71
2023-04-01T07:07:40.049Z,29.61
2023-04-01T07:12:58.248Z,29.75
2023-04-01T07:18:45.630Z,29.57
2023-04-01T07:23:54.280Z,29.84
2023-04-01T07:29:18.549Z,30.22
2023-04-01T07:34:53.892Z,30.32
2023-04-01T07:40:12.137Z,30.39
2023-04-01T07:45:33.488Z,29.86
2023-04-01T07:51:06.311Z,29.87
2023-04-01T07:56:14.545Z,30.42
2023-04-01T08:01:44.814Z,30.29
2023-04-01T08:07:23.188Z,30.61
2023-04-01T08:13:06.568Z,30.30
2023-04-01T08:58:26.728Z,31.40
2023-04-01T09:04:31.037Z,31.29
2023-04-01T09:10:25.933Z,31.26
2023-04-01T09:16:00.648Z,30.94
2023-04-01T09:21:38.434Z,31.02
2023-04-01T09:26:59.785Z,31.13
2023-04-01T09:32:17.326Z,31.15
2023-04-01T09:37:53.575Z,31.14
2023-04-01T09:43:23.697Z,31.34
2023-04-01T09:49:06.388Z,31.20
2023-04-01T09:54:29.012Z,31.44
2023-04-01T10:00:18.404Z,31.50
2023-04-01T10:05:52.773Z,31.38
2023-04-01T10:11:37.541Z,31.35
2023-04-01T10:16:56.771Z,31.58
2023-04-01T10:22:26.042Z,32.00
2023-04-01T10:28:05.687Z,31.99
2023-04-01T10:34:05.344Z,31.94
2023-04-01T10:39:49.268Z,31.77
2023-04-01T10:45:31.171Z,32.37
2023-04-01T10:50:41.780Z,32.39
2023-04-01T10:56:20.677Z,32.59
2023-04-01T11:02:11.383Z,33.11
2023-04-01T11:08:02.856Z,32.71
2023-04-01T11:13:41.770Z,32.40
2023-04-01T11:18:57.395Z,32.94
2023-04-01T11:24:20.773Z,33.05
2023-04-01T11:30:08.361Z,32.94
2023-04-01T11:35:36.239Z,33.63
2023-04-01T11:40:44.965Z,33.56
2023-04-01T11:46:19.094Z,33.08
2023-04-01T11:52:00.111Z,33.04
2023-04-01T11:57:36.459Z,33.33
2023-04-01T12:03:10.436Z,34.41
2023-04-01T12:08:24.857Z,33.70
2023-04-01T12:13:32.676Z,34.63
2023-04-01T12:18:49.672Z,35.11
2023-04-01T12:24:09.702Z,34.35
2023-04-01T12:29:47.354Z,33.72
2023-04-01T12:35:10.752Z,35.34
2023-04-01T12:40:34.216Z,34.04
2023-04-01T12:46:23.698Z,33.73
2023-04-01T12:51:48.783Z,35.16
2023-04-01T12:57:16.679Z,34.31
2023-04-01T13:03:02.870Z,34.39
2023-04-01T13:08:14.970Z,35.23
2023-04-01T13:13:37.646Z,35.06
2023-04-01T13:19:01.400Z,36.57
2023-04-01T13:24:20.256Z,36.39
2023-04-01T13:29:46.214Z,35.70
2023-04-01T13:35:07.696Z,35.45
2023-04-01T13:40:55.669Z,35.62
2023-04-01T13:46:04.644Z,37.30
2023-04-01T13:51:35.452Z,37.54
2023-04-01T13:56:39.490Z,37.17
2023-04-01T14:02:06.389Z,35.99
2023-04-01T14:07:53.758Z,35.96
2023-04-01T14:13:01.278Z,36.00
2023-04-01T14:18:18.132Z,35.98
2023-04-01T14:23:32.053Z,36.04
2023-04-01T14:28:48.995Z,36.20
2023-04-01T14:34:09.497Z,37.23
2023-04-01T14:39:53.906Z,35.88
2023-04-01T14:45:19.850Z,35.75
2023-04-01T14:50:33.053Z,36.15
2023-04-01T14:55:54.660Z,36.82
2023-04-01T15:01:24.807Z,36.02
2023-04-01T15:07:11.325Z,36.39
2023-04-01T15:12:24.719Z,37.36
2023-04-01T15:17:59.819Z,37.39
2023-04-01T15:23:26.305Z,36.41
2023-04-01T15:29:13.413Z,36.05
2023-04-01T15:34:36.548Z,37.27
2023-04-01T15:40:05.287Z,36.57
2023-04-01T15:45:40.769Z,36.78
2023-04-01T15:50:48.705Z,38.18
2023-04-01T15:56:03.076Z,38.50
2023-04-01T16:01:26.667Z,38.37
2023-04-01T16:06:37.907Z,37.94
2023-04-01T16:12:04.093Z,37.47
2023-04-01T16:17:59.481Z,37.38
2023-04-01T16:23:38.637Z,37.40
2023-04-01T16:29:10.190Z,37.84
2023-04-01T16:34:33.361Z,38.56
2023-04-01T16:40:18.474Z,37.50
2023-04-01T16:45:35.874Z,38.38
2023-04-01T16:51:03.000Z,38.04
2023-04-01T16:56:31.795Z,38.64
2023-04-01T17:01:59.232Z,37.96
2023-04-01T17:07:30.243Z,37.75
2023-04-01T17:12:47.368Z,39.31
2023-04-01T17:18:04.304Z,40.32
2023-04-01T17:23:25.292Z,38.90
2023-04-01T17:28:30.363Z,40.71
2023-04-01T17:33:58.178Z,39.12
2023-04-01T17:39:39.901Z,37.88
2023-04-01T17:45:00.145Z,40.07
2023-04-01T17:50:22.764Z,39.16
2023-04-01T17:55:31.030Z,40.50
2023-04-01T18:00:54.489Z,39.10
2023-04-01T18:06:28.713Z,39.35
2023-04-01T18:11:37.507Z,40.57
2023-04-01T18:17:15.984Z,39.97
2023-04-01T18:22:29.683Z,40.44
2023-04-01T18:27:45.665Z,40.64
2023-04-01T18:32:59.809Z,39.43
2023-04-01T18:38:34.395Z,39.99
2023-04-01T18:44:05.529Z,40.76
2023-04-01T18:49:28.863Z,41.09
2023-04-01T18:54:43.633Z,39.66
2023-04-01T18:59:59.876Z,39.96
2023-04-01T19:05:17.565Z,39.08
2023-04-01T19:11:11.398Z,39.65
2023-04-01T19:16:53.944Z,39.19
2023-04-01T19:22:01.925Z,39.98
2023-04-01T19:27:05.997Z,40.01
2023-04-01T19:32:24.556Z,38.73
2023-04-01T19:37:59.978Z,38.61
2023-04-01T19:43:10.277Z,39.39
2023-04-01T19:48:46.746Z,38.88
2023-04-01T19:54:15.286Z,38.36
2023-04-01T19:59:34.062Z,38.77
2023-04-01T20:04:50.490Z,38.58
2023-04-01T20:10:18.361Z,40.08
2023-04-01T20:15:38.001Z,39.51
2023-04-01T20:20:53.944Z,39.92
2023-04-01T20:26:05.610Z,40.03
2023-04-01T20:31:28.612Z,38.60
2023-04-01T20:36:45.746Z,39.01
2023-04-01T20:42:05.752Z,39.87
2023-04-01T20:47:43.120Z,38.20
2023-04-01T20:53:04.891Z,38.00
2023-04-01T20:58:49.945Z,37.81
2023-04-01T21:04:31.572Z,38.92
2023-04-01T21:09:40.538Z,38.60
2023-04-01T21:15:01.785Z,38.38
2023-04-01T21:20:26.268Z,38.93
2023-04-01T21:25:49.350Z,38.54
2023-04-01T21:31:23.903Z,38.00
2023-04-01T21:36:59.741Z,37.70
2023-04-01T21:42:49.014Z,38.18
2023-04-01T21:48:05.814Z,38.46
2023-04-01T21:53:24.416Z,38.73
2023-04-01T21:59:11.134Z,37.95
2023-04-01T22:04:26.944Z,38.43
2023-04-01T22:09:51.611Z,38.80
2023-04-01T22:15:14.650Z,37.90
2023-04-01T22:20:25.432Z,39.24
2023-04-01T22:25:47.734Z,38.03
2023-04-01T22:30:58.669Z,38.05
2023-04-01T22:36:27.726Z,38.50
2023-04-01T22:41:56.127Z,38.14
2023-04-01T22:47:36.642Z,38.23
2023-04-01T22:52:46.372Z,38.96
2023-04-01T22:58:02.150Z,38.66
2023-04-01T23:03:48.870Z,37.90
2023-04-01T23:09:21.754Z,38.00
2023-04-01T23:14:34.743Z,38.78
2023-04-01T23:20:06.964Z,38.26
2023-04-01T23:25:31.349Z,37.93
2023-04-01T23:30:42.472Z,38.16
2023-04-01T23:35:59.588Z,38.03
2023-04-01T23:41:07.127Z,38.96
2023-04-01T23:46:14.943Z,38.45
2023-04-01T23:51:27.817Z,38.56
2023-04-01T23:56:46.076Z,37.97
